createdAt,value
2022-12-24T00:01:46.085Z,59.75
2022-12-24T00:04:12.879Z,60.04
2022-12-24T00:06:39.990Z,59.92
2022-12-24T00:09:06.778Z,59.68
2022-12-24T00:11:33.869Z,59.57
2022-12-24T00:14:00.786Z,59.77
2022-12-24T00:16:28.183Z,59.85
2022-12-24T00:18:55.036Z,59.99
2022-12-24T00:21:22.151Z,59.92
2022-12-24T00:23:48.941Z,59.83
2022-12-24T00:26:15.999Z,60.00
2022-12-24T00:28:42.807Z,60.08
2022-12-24T00:31:14.717Z,59.97
2022-12-24T00:33:41.685Z,60.05
2022-12-24T00:36:09.650Z,59.85
2022-12-24T00:38:36.413Z,60.00
2022-12-24T00:41:04.296Z,59.93
2022-12-24T00:43:31.146Z,59.72
2022-12-24T00:46:00.205Z,59.64
2022-12-24T00:48:27.044Z,59.94
2022-12-24T00:50:54.258Z,59.92
2022-12-24T00:53:21.200Z,59.75
2022-12-24T00:55:48.298Z,60.03
2022-12-24T00:58:15.121Z,60.36
2022-12-24T01:00:42.194Z,60.13
2022-12-24T01:03:09.087Z,60.09
2022-12-24T01:05:36.427Z,59.96
2022-12-24T01:08:03.229Z,59.97
2022-12-24T01:10:30.356Z,59.74
2022-12-24T01:12:57.116Z,59.74
2022-12-24T01:15:24.186Z,59.81
2022-12-24T01:17:50.939Z,59.62
2022-12-24T01:20:18.104Z,59.70
2022-12-24T01:22:45.047Z,59.67
2022-12-24T01:25:12.211Z,59.78
2022-12-24T01:27:38.946Z,59.74
2022-12-24T01:30:07.499Z,59.50
2022-12-24T01:32:34.289Z,59.70
2022-12-24T01:35:01.297Z,59.68
2022-12-24T01:37:28.234Z,59.57
2022-12-24T01:40:15.251Z,59.60
2022-12-24T01:43:02.762Z,59.52
2022-12-24T01:45:42.227Z,59.67
2022-12-24T01:48:27.810Z,59.60
2022-12-24T01:50:58.047Z,59.59
2022-12-24T01:53:24.832Z,59.75
2022-12-24T01:55:51.957Z,59.93
2022-12-24T01:58:18.731Z,59.89
2022-12-24T02:00:45.787Z,59.51
2022-12-24T02:03:12.691Z,59.68
2022-12-24T02:05:47.670Z,59.85
2022-12-24T02:08:14.700Z,59.93
2022-12-24T02:10:41.900Z,59.74
2022-12-24T02:13:08.671Z,59.86
2022-12-24T02:15:56.087Z,59.46
2022-12-24T02:18:26.897Z,59.65
2022-12-24T02:21:03.162Z,59.72
2022-12-24T02:23:58.724Z,59.92
2022-12-24T02:26:34.958Z,59.81
2022-12-24T02:29:18.355Z,60.03
2022-12-24T02:31:51.927Z,59.80
2022-12-24T02:34:25.023Z,59.86
2022-12-24T02:37:31.887Z,59.75
2022-12-24T02:40:12.122Z,59.89
2022-12-24T02:42:49.102Z,59.56
2022-12-24T02:45:17.968Z,59.69
2022-12-24T02:47:45.190Z,60.00
2022-12-24T02:50:14.335Z,60.07
2022-12-24T02:52:43.571Z,60.13
2022-12-24T02:55:17.836Z,59.87
2022-12-24T02:58:10.301Z,60.15
2022-12-24T03:00:58.515Z,59.98
2022-12-24T03:03:40.676Z,60.12
2022-12-24T03:06:45.184Z,60.31
2022-12-24T03:09:26.164Z,60.35
2022-12-24T03:12:04.267Z,60.22
2022-12-24T03:14:31.504Z,60.11
2022-12-24T03:16:58.237Z,60.11
2022-12-24T03:19:25.675Z,60.39
2022-12-24T03:21:52.437Z,60.49
2022-12-24T03:24:19.565Z,60.56
2022-12-24T03:26:46.921Z,60.59
2022-12-24T03:29:14.021Z,60.19
2022-12-24T03:31:44.998Z,60.65
2022-12-24T03:34:12.476Z,60.48
2022-12-24T03:36:39.344Z,60.18
2022-12-24T03:39:06.755Z,60.16
2022-12-24T03:41:33.632Z,60.05
2022-12-24T03:44:00.733Z,60.64
2022-12-24T03:46:27.804Z,60.30
2022-12-24T03:48:54.971Z,60.41
2022-12-24T03:51:22.973Z,60.34
2022-12-24T03:53:51.745Z,60.22
2022-12-24T03:56:18.508Z,60.49
2022-12-24T03:58:45.566Z,60.73
2022-12-24T04:01:12.460Z,60.50
2022-12-24T04:03:39.662Z,60.54
2022-12-24T04:06:08.521Z,60.59
2022-12-24T04:08:35.992Z,60.79
2022-12-24T04:11:09.542Z,60.38
2022-12-24T04:13:37.078Z,60.29
2022-12-24T04:16:06.049Z,60.20
2022-12-24T04:18:33.170Z,60.25
2022-12-24T04:20:59.921Z,60.04
2022-12-24T04:23:26.961Z,60.21
2022-12-24T04:25:53.699Z,60.20
2022-12-24T04:28:20.833Z,60.13
2022-12-24T04:30:47.573Z,60.03
2022-12-24T04:33:14.634Z,60.00
2022-12-24T04:35:41.577Z,60.03
2022-12-24T04:38:09.596Z,60.04
2022-12-24T04:40:36.381Z,60.26
2022-12-24T04:43:03.481Z,60.18
2022-12-24T04:45:30.267Z,60.12
2022-12-24T04:47:57.364Z,60.14
2022-12-24T04:50:24.135Z,59.95
2022-12-24T04:52:51.168Z,60.32
2022-12-24T04:55:17.961Z,60.29
2022-12-24T04:57:49.733Z,60.33
2022-12-24T05:00:19.764Z,60.55
2022-12-24T05:02:46.898Z,60.72
2022-12-24T05:05:13.738Z,60.88
2022-12-24T05:07:40.801Z,60.61
2022-12-24T05:10:08.252Z,60.30
2022-12-24T05:12:35.288Z,60.36
2022-12-24T05:15:02.008Z,60.25
2022-12-24T05:17:29.070Z,60.34
2022-12-24T05:19:55.809Z,60.48
2022-12-24T05:22:41.573Z,60.31
2022-12-24T05:25:28.429Z,60.58
2022-12-24T05:27:55.766Z,60.91
2022-12-24T05:30:22.490Z,61.01
2022-12-24T05:32:49.525Z,61.05
2022-12-24T05:35:16.279Z,61.04
2022-12-24T05:37:43.385Z,61.03
2022-12-24T05:40:10.414Z,60.97
2022-12-24T05:42:37.516Z,60.96
2022-12-24T05:45:04.544Z,61.04
2022-12-24T05:47:31.535Z,60.84
2022-12-24T05:49:58.298Z,61.18
2022-12-24T05:52:25.425Z,61.03
2022-12-24T05:54:52.154Z,61.61
2022-12-24T05:57:19.189Z,61.40
2022-12-24T05:59:45.992Z,61.40
2022-12-24T06:02:13.120Z,61.29
2022-12-24T06:04:40.114Z,61.12
2022-12-24T06:07:07.194Z,61.01
2022-12-24T06:09:34.012Z,60.88
2022-12-24T06:12:01.052Z,61.14
2022-12-24T06:14:27.766Z,61.12
2022-12-24T06:16:54.828Z,60.91
2022-12-24T06:19:21.656Z,61.30
2022-12-24T06:21:48.712Z,61.12
2022-12-24T06:24:15.978Z,61.14
2022-12-24T06:26:43.003Z,61.25
2022-12-24T06:29:10.306Z,61.30
2022-12-24T06:31:37.449Z,60.99
2022-12-24T06:34:04.177Z,61.30
2022-12-24T06:36:31.292Z,61.28
2022-12-24T06:38:58.047Z,61.23
2022-12-24T06:41:25.133Z,61.17
2022-12-24T06:43:52.453Z,61.37
2022-12-24T06:46:19.992Z,61.20
2022-12-24T06:48:46.800Z,61.39
2022-12-24T06:51:14.316Z,61.28
2022-12-24T06:53:41.290Z,61.18
2022-12-24T06:56:09.896Z,61.06
2022-12-24T06:58:36.725Z,61.30
2022-12-24T07:01:08.079Z,61.23
2022-12-24T07:03:34.906Z,61.21
2022-12-24T07:06:02.128Z,61.24
2022-12-24T07:08:28.935Z,61.27
2022-12-24T07:10:56.033Z,61.18
2022-12-24T07:13:22.799Z,61.51
2022-12-24T07:16:00.097Z,61.26
2022-12-24T07:18:26.944Z,61.22
2022-12-24T07:20:54.079Z,61.31
2022-12-24T07:23:21.019Z,61.36
2022-12-24T07:25:48.110Z,61.43
2022-12-24T07:28:14.894Z,61.28
2022-12-24T07:30:41.924Z,61.43
2022-12-24T07:33:08.791Z,61.45
2022-12-24T07:35:35.801Z,61.07
2022-12-24T07:38:02.753Z,61.36
2022-12-24T07:40:29.822Z,61.33
2022-12-24T07:42:56.631Z,61.37
2022-12-24T07:45:23.779Z,61.44
2022-12-24T07:47:50.538Z,61.19
2022-12-24T07:50:17.712Z,61.15
2022-12-24T07:52:44.454Z,61.17
2022-12-24T07:55:11.570Z,61.30
2022-12-24T07:57:38.326Z,61.28
2022-12-24T08:00:06.071Z,61.25
2022-12-24T08:02:32.959Z,61.17
2022-12-24T08:05:00.180Z,61.32
2022-12-24T08:07:26.898Z,60.97
2022-12-24T08:09:53.927Z,61.06
2022-12-24T08:12:20.749Z,61.24
2022-12-24T08:14:47.791Z,61.34
2022-12-24T08:17:14.498Z,61.22
2022-12-24T08:19:41.515Z,60.94
2022-12-24T08:22:08.326Z,61.38
2022-12-24T08:24:35.444Z,61.28
2022-12-24T08:27:02.185Z,61.15
2022-12-24T08:29:29.237Z,61.43
2022-12-24T08:31:56.044Z,61.30
2022-12-24T08:34:23.561Z,61.56
2022-12-24T08:36:50.331Z,61.34
2022-12-24T08:39:17.463Z,61.73
2022-12-24T08:41:44.184Z,61.94
2022-12-24T08:44:11.226Z,61.56
2022-12-24T08:46:38.029Z,62.01
2022-12-24T08:49:05.190Z,61.93
2022-12-24T08:51:32.312Z,62.17
2022-12-24T08:53:59.346Z,61.85
2022-12-24T08:56:26.168Z,61.78
2022-12-24T08:58:53.241Z,61.83
2022-12-24T09:01:20.455Z,61.88
2022-12-24T09:03:47.649Z,61.78
2022-12-24T09:06:14.579Z,61.77
2022-12-24T09:08:41.694Z,61.88
2022-12-24T09:11:13.415Z,61.65
2022-12-24T09:13:40.657Z,61.58
2022-12-24T09:16:08.005Z,61.92
2022-12-24T09:18:35.116Z,61.72
2022-12-24T09:21:02.611Z,61.50
2022-12-24T09:23:29.811Z,61.46
2022-12-24T09:25:56.608Z,61.46
2022-12-24T09:28:23.795Z,61.49
2022-12-24T09:31:01.056Z,61.54
2022-12-24T09:33:29.049Z,61.44
2022-12-24T09:35:55.810Z,61.31
2022-12-24T09:38:23.067Z,61.44
2022-12-24T09:40:50.008Z,61.49
2022-12-24T09:43:24.676Z,61.13
2022-12-24T09:46:14.417Z,61.13
2022-12-24T09:48:44.101Z,61.13
2022-12-24T09:51:26.853Z,61.08
2022-12-24T09:53:57.347Z,61.35
2022-12-24T09:56:28.371Z,61.05
2022-12-24T09:59:03.691Z,61.02
2022-12-24T10:01:31.609Z,61.05
2022-12-24T10:04:00.375Z,61.16
2022-12-24T10:06:42.362Z,61.04
2022-12-24T10:09:15.755Z,61.11
2022-12-24T10:11:54.360Z,61.16
2022-12-24T10:14:43.129Z,61.05
2022-12-24T10:17:16.085Z,60.75
2022-12-24T10:20:09.678Z,60.94
2022-12-24T10:23:02.954Z,61.07
2022-12-24T10:25:56.286Z,60.81
2022-12-24T10:28:28.525Z,60.83
2022-12-24T10:30:58.635Z,60.81
2022-12-24T10:33:38.400Z,60.76
2022-12-24T10:36:11.952Z,60.77
2022-12-24T10:38:39.170Z,60.57
2022-12-24T10:41:06.289Z,60.65
2022-12-24T10:43:33.058Z,60.69
2022-12-24T10:46:02.159Z,60.64
2022-12-24T10:48:30.926Z,60.70
2022-12-24T10:51:06.308Z,60.37
2022-12-24T10:53:49.055Z,60.69
2022-12-24T10:56:17.361Z,60.40
2022-12-24T10:58:45.577Z,60.38
2022-12-24T11:01:12.715Z,60.33
2022-12-24T11:03:40.123Z,60.21
2022-12-24T11:06:22.796Z,60.55
2022-12-24T11:08:49.531Z,60.43
2022-12-24T11:11:20.759Z,60.47
2022-12-24T11:13:50.674Z,60.70
2022-12-24T11:16:24.075Z,60.44
2022-12-24T11:18:54.701Z,60.59
2022-12-24T11:21:26.813Z,60.12
2022-12-24T11:23:58.358Z,60.19
2022-12-24T11:26:29.624Z,60.16
2022-12-24T11:29:08.507Z,60.11
2022-12-24T11:31:38.963Z,60.01
2022-12-24T11:34:25.732Z,60.15
2022-12-24T11:36:53.508Z,59.88
2022-12-24T11:39:26.404Z,59.98
2022-12-24T11:41:53.687Z,59.87
2022-12-24T11:44:25.584Z,59.60
2022-12-24T11:46:56.850Z,59.72
2022-12-24T11:49:31.389Z,59.31
2022-12-24T11:52:11.470Z,59.27
2022-12-24T11:54:44.693Z,59.45
2022-12-24T11:57:11.911Z,59.35
2022-12-24T11:59:41.917Z,59.48
2022-12-24T12:02:30.003Z,59.25
2022-12-24T12:04:59.833Z,59.25
2022-12-24T12:07:29.554Z,59.27
2022-12-24T12:09:59.761Z,59.17
2022-12-24T12:12:28.360Z,59.36
2022-12-24T12:15:24.608Z,59.16
2022-12-24T12:18:12.197Z,59.28
2022-12-24T12:20:45.285Z,59.35
2022-12-24T12:23:31.396Z,59.37
2022-12-24T12:25:59.196Z,59.19
2022-12-24T12:28:32.411Z,59.52
2022-12-24T12:31:06.028Z,59.14
2022-12-24T12:33:41.487Z,59.35
2022-12-24T12:36:08.803Z,59.31
2022-12-24T12:38:36.000Z,59.04
2022-12-24T12:41:15.009Z,58.97
2022-12-24T12:44:01.009Z,59.13
2022-12-24T12:46:33.640Z,59.08
2022-12-24T12:49:12.995Z,59.00
2022-12-24T12:51:42.903Z,59.09
2022-12-24T12:54:22.347Z,59.00
2022-12-24T12:56:50.547Z,58.64
2022-12-24T12:59:41.526Z,58.98
2022-12-24T13:02:18.549Z,58.78
2022-12-24T13:04:51.775Z,58.77
2022-12-24T13:07:21.280Z,58.83
2022-12-24T13:10:35.870Z,58.74
2022-12-24T13:13:27.329Z,58.51
2022-12-24T13:16:14.447Z,58.58
2022-12-24T13:18:59.801Z,58.68
2022-12-24T13:21:28.507Z,58.54
2022-12-24T13:24:28.301Z,58.72
2022-12-24T13:27:23.967Z,58.67
2022-12-24T13:30:02.159Z,58.40
2022-12-24T13:32:34.221Z,58.35
2022-12-24T13:35:03.153Z,58.49
2022-12-24T13:37:34.339Z,58.35
2022-12-24T13:40:04.117Z,58.33
2022-12-24T13:42:59.252Z,58.18
2022-12-24T13:45:29.197Z,58.33
2022-12-24T13:48:14.483Z,58.24
2022-12-24T13:50:44.245Z,58.58
2022-12-24T13:53:33.651Z,58.24
2022-12-24T13:56:27.127Z,58.18
2022-12-24T13:59:08.917Z,58.39
2022-12-24T14:01:37.163Z,58.49
2022-12-24T14:04:04.421Z,58.49
2022-12-24T14:06:35.986Z,58.33
2022-12-24T14:09:10.127Z,58.34
2022-12-24T14:11:58.938Z,58.48
2022-12-24T14:14:29.943Z,58.63
2022-12-24T14:16:58.530Z,58.48
2022-12-24T14:19:32.357Z,58.13
2022-12-24T14:22:14.933Z,58.60
2022-12-24T14:24:43.061Z,58.51
2022-12-24T14:27:17.162Z,58.62
2022-12-24T14:29:52.790Z,58.86
2022-12-24T14:32:19.525Z,58.84
2022-12-24T14:34:46.735Z,59.15
2022-12-24T14:37:13.597Z,59.13
2022-12-24T14:39:46.661Z,58.94
2022-12-24T14:42:39.164Z,59.33
2022-12-24T14:45:47.739Z,59.32
2022-12-24T14:48:37.667Z,59.05
2022-12-24T14:51:28.021Z,59.33
2022-12-24T14:54:28.814Z,59.11
2022-12-24T14:57:11.387Z,59.27
2022-12-24T14:59:43.938Z,59.68
2022-12-24T15:02:43.536Z,59.39
2022-12-24T15:05:21.459Z,59.64
2022-12-24T15:08:18.865Z,59.78
2022-12-24T15:10:48.281Z,59.57
2022-12-24T15:13:21.536Z,59.50
2022-12-24T15:15:52.507Z,59.62
2022-12-24T15:18:22.527Z,59.78
2022-12-24T15:20:51.213Z,59.87
2022-12-24T15:23:19.855Z,60.01
2022-12-24T15:25:46.709Z,60.25
2022-12-24T15:34:05.415Z,60.37
2022-12-24T15:36:35.675Z,60.44
2022-12-24T15:39:07.147Z,60.59
2022-12-24T15:41:59.627Z,60.53
2022-12-24T15:44:27.360Z,60.30
2022-12-24T15:47:00.991Z,60.41
2022-12-24T15:49:31.401Z,60.29
2022-12-24T15:52:06.529Z,60.33
2022-12-24T15:54:33.877Z,60.28
2022-12-24T15:57:00.904Z,60.41
2022-12-24T15:59:28.820Z,60.33
2022-12-24T16:01:55.905Z,60.16
2022-12-24T16:04:27.493Z,60.14
2022-12-24T16:07:02.085Z,60.22
2022-12-24T16:09:37.161Z,60.26
2022-12-24T16:12:04.304Z,60.31
2022-12-24T16:14:31.299Z,60.20
2022-12-24T16:16:58.733Z,60.26
2022-12-24T16:19:26.641Z,60.28
2022-12-24T16:21:54.509Z,60.50
2022-12-24T16:24:25.181Z,60.37
2022-12-24T16:34:29.709Z,60.52
2022-12-24T16:36:56.951Z,60.69
2022-12-24T16:39:31.549Z,60.82
2022-12-24T16:42:18.792Z,60.64
2022-12-24T16:44:45.767Z,60.72
2022-12-24T16:47:15.595Z,60.78
2022-12-24T16:49:42.404Z,60.63
2022-12-24T16:52:16.352Z,60.56
2022-12-24T16:54:43.132Z,60.82
2022-12-24T16:57:10.601Z,60.60
2022-12-24T16:59:37.534Z,60.50
2022-12-24T17:02:09.233Z,60.52
2022-12-24T17:04:39.724Z,60.49
2022-12-24T17:07:07.243Z,60.26
2022-12-24T17:09:33.985Z,60.55
2022-12-24T17:12:01.016Z,60.68
2022-12-24T17:14:27.736Z,60.28
2022-12-24T17:16:54.840Z,60.35
2022-12-24T17:19:21.559Z,60.32
2022-12-24T17:21:48.592Z,60.70
2022-12-24T17:24:15.478Z,60.32
2022-12-24T17:26:43.653Z,60.26
2022-12-24T17:29:10.439Z,60.28
2022-12-24T17:31:40.850Z,60.23
2022-12-24T17:34:07.660Z,60.18
2022-12-24T17:36:34.747Z,60.46
2022-12-24T17:39:01.536Z,60.32
2022-12-24T17:41:28.597Z,60.52
2022-12-24T17:43:55.300Z,60.35
2022-12-24T17:46:23.007Z,60.27
2022-12-24T17:48:50.840Z,60.14
2022-12-24T17:51:20.303Z,60.36
2022-12-24T17:53:47.205Z,60.22
2022-12-24T17:56:15.445Z,60.43
2022-12-24T17:58:43.451Z,60.25
2022-12-24T18:01:20.523Z,60.52
2022-12-24T18:03:48.271Z,60.54
2022-12-24T18:06:15.699Z,60.71
2022-12-24T18:08:43.079Z,60.62
2022-12-24T18:11:32.720Z,60.77
2022-12-24T18:14:01.067Z,60.67
2022-12-24T18:16:34.014Z,60.66
2022-12-24T18:19:01.888Z,60.50
2022-12-24T18:21:30.063Z,60.57
2022-12-24T18:23:56.955Z,60.76
2022-12-24T18:26:28.278Z,60.66
2022-12-24T18:28:56.049Z,60.64
2022-12-24T18:31:24.001Z,60.90
2022-12-24T18:33:51.209Z,60.60
2022-12-24T18:36:18.437Z,60.64
2022-12-24T18:38:45.292Z,60.95
2022-12-24T18:41:20.210Z,60.94
2022-12-24T18:43:47.142Z,60.79
2022-12-24T18:46:25.334Z,60.82
2022-12-24T18:48:52.392Z,60.74
2022-12-24T18:51:22.101Z,60.73
2022-12-24T18:53:49.323Z,60.70
2022-12-24T18:56:18.489Z,60.52
2022-12-24T18:58:45.306Z,60.68
2022-12-24T19:01:20.228Z,60.82
2022-12-24T19:03:47.376Z,60.63
2022-12-24T19:06:14.471Z,60.82
2022-12-24T19:08:58.898Z,60.64
2022-12-24T19:11:28.388Z,60.83
2022-12-24T19:13:55.354Z,60.49
2022-12-24T19:16:22.545Z,60.69
2022-12-24T19:18:49.860Z,60.61
2022-12-24T19:21:17.533Z,61.01
2022-12-24T19:23:44.975Z,60.67
2022-12-24T19:26:12.635Z,60.69
2022-12-24T19:28:39.453Z,60.74
2022-12-24T19:31:09.421Z,60.78
2022-12-24T19:33:42.698Z,60.61
2022-12-24T19:36:12.712Z,60.66
2022-12-24T19:38:39.614Z,60.65
2022-12-24T19:41:13.299Z,60.82
2022-12-24T19:43:41.339Z,60.79
2022-12-24T19:46:09.501Z,60.65
2022-12-24T19:48:36.557Z,60.67
2022-12-24T19:51:06.567Z,60.49
2022-12-24T19:53:33.613Z,60.59
2022-12-24T19:56:00.689Z,60.77
2022-12-24T19:58:27.849Z,60.83
2022-12-24T20:00:55.049Z,60.61
2022-12-24T20:03:21.990Z,60.60
2022-12-24T20:05:49.196Z,60.69
2022-12-24T20:08:15.981Z,60.82
2022-12-24T20:10:43.650Z,60.89
2022-12-24T20:13:10.685Z,60.55
2022-12-24T20:15:39.566Z,60.50
2022-12-24T20:18:06.629Z,60.73
2022-12-24T20:20:33.900Z,60.80
2022-12-24T20:23:00.797Z,60.64
2022-12-24T20:25:28.007Z,60.62
2022-12-24T20:27:54.812Z,60.91
2022-12-24T20:30:21.893Z,60.73
2022-12-24T20:32:48.734Z,60.73
2022-12-24T20:35:15.895Z,60.71
2022-12-24T20:37:46.178Z,60.50
2022-12-24T20:40:13.545Z,60.57
2022-12-24T20:42:41.288Z,60.41
2022-12-24T20:45:08.597Z,60.56
2022-12-24T20:47:35.377Z,60.54
2022-12-24T20:50:02.444Z,60.58
2022-12-24T20:52:29.429Z,60.76
2022-12-24T20:54:56.476Z,60.82
2022-12-24T20:57:26.824Z,60.69
2022-12-24T20:59:55.958Z,60.62
2022-12-24T21:02:22.796Z,60.69
2022-12-24T21:04:50.192Z,60.77
2022-12-24T21:07:17.312Z,60.40
2022-12-24T21:09:44.404Z,60.59
2022-12-24T21:12:30.390Z,60.80
2022-12-24T21:14:57.544Z,60.57
2022-12-24T21:17:24.392Z,60.57
2022-12-24T21:19:51.828Z,60.56
2022-12-24T21:22:18.537Z,60.86
2022-12-24T21:24:45.539Z,60.85
2022-12-24T21:27:12.366Z,60.67
2022-12-24T21:29:39.393Z,60.79
2022-12-24T21:32:06.143Z,60.75
2022-12-24T21:34:33.211Z,60.82
2022-12-24T21:36:59.984Z,60.53
2022-12-24T21:39:27.080Z,60.58
2022-12-24T21:41:53.841Z,60.75
2022-12-24T21:44:20.881Z,60.51
2022-12-24T21:46:47.656Z,60.17
2022-12-24T21:49:33.294Z,60.53
2022-12-24T21:52:00.113Z,60.38
2022-12-24T21:54:28.582Z,60.38
2022-12-24T21:57:32.431Z,60.33
2022-12-24T22:00:18.062Z,60.50
2022-12-24T22:02:45.287Z,60.60
2022-12-24T22:05:12.625Z,60.27
2022-12-24T22:07:58.058Z,60.40
2022-12-24T22:10:43.706Z,60.57
2022-12-24T22:13:10.471Z,60.38
2022-12-24T22:15:46.089Z,61.05
2022-12-24T22:18:12.942Z,60.42
2022-12-24T22:20:40.140Z,60.69
2022-12-24T22:23:53.206Z,60.35
2022-12-24T22:26:27.377Z,60.40
2022-12-24T22:28:54.347Z,60.20
2022-12-24T22:31:29.632Z,60.32
2022-12-24T22:33:58.219Z,60.47
2022-12-24T22:36:26.830Z,60.58
2022-12-24T22:39:10.388Z,60.73
2022-12-24T22:41:44.933Z,60.55
2022-12-24T22:44:32.760Z,60.50
2022-12-24T22:47:01.542Z,60.54
2022-12-24T22:49:34.344Z,60.69
2022-12-24T22:52:12.302Z,60.57
2022-12-24T22:54:39.902Z,60.62
2022-12-24T22:57:08.095Z,60.53
2022-12-24T22:59:34.850Z,60.54
2022-12-24T23:02:04.325Z,60.56
2022-12-24T23:04:37.854Z,60.74
2022-12-24T23:07:05.921Z,60.44
2022-12-24T23:09:32.896Z,60.43
2022-12-24T23:11:59.954Z,60.49
2022-12-24T23:14:45.457Z,60.42
2022-12-24T23:17:12.580Z,60.62
2022-12-24T23:19:39.410Z,60.57
2022-12-24T23:22:06.546Z,60.41
2022-12-24T23:24:34.129Z,60.72
2022-12-24T23:27:01.647Z,60.41
2022-12-24T23:29:29.395Z,60.47
2022-12-24T23:31:56.458Z,60.34
2022-12-24T23:34:23.355Z,60.40
2022-12-24T23:36:50.421Z,60.45
2022-12-24T23:39:17.175Z,60.48
2022-12-24T23:41:44.253Z,60.71
2022-12-24T23:44:10.985Z,60.38
2022-12-24T23:46:38.106Z,60.33
2022-12-24T23:49:06.072Z,60.49
2022-12-24T23:51:33.107Z,60.48
2022-12-24T23:53:59.836Z,60.12
2022-12-24T23:56:26.921Z,60.28
2022-12-24T23:58:53.709Z,60.26
